TimeEDT,TemperatureF,Dew PointF,Humidity,Sea Level PressureIn,VisibilityMPH,Wind Direction,Wind SpeedMPH,Gust SpeedMPH,PrecipitationIn,Events,Conditions,WindDirDegrees,DateUTC
12:53 AM,77.0,76.6,99,30.02,10.0,Calm,Calm,-,0.00,,Mostly Cloudy,0,2013-06-04 04:53:00
1:13 AM,77.0,77.0,100,30.02,0.8,SSW,16.1,20.7,N/A,Rain,Heavy Rain,200,2013-06-04 05:13:00
1:20 AM,77.0,77.0,100,30.02,2.0,SW,10.4,-,N/A,Rain,Heavy Rain,220,2013-06-04 05:20:00
1:35 AM,75.2,75.2,100,30.01,5.0,Calm,Calm,-,0.33,Rain,Rain,0,2013-06-04 05:35:00
1:53 AM,75.0,74.8,99,30.00,5.0,Calm,Calm,-,0.36,Rain,Rain,0,2013-06-04 05:53:00
2:53 AM,74.8,74.5,99,29.98,9.0,North,5.8,-,0.05,Rain,Light Rain,360,2013-06-04 06:53:00
3:53 AM,75.7,74.7,96,29.97,10.0,Calm,Calm,-,0.00,Rain,Light Rain,0,2013-06-04 07:53:00
4:53 AM,75.0,73.0,94,29.96,10.0,Calm,Calm,-,0.00,,Scattered Clouds,0,2013-06-04 08:53:00
5:53 AM,74.7,73.4,96,29.97,10.0,Calm,Calm,-,N/A,,Partly Cloudy,0,2013-06-04 09:53:00
6:53 AM,74.5,73.4,96,29.97,10.0,Calm,Calm,-,N/A,,Scattered Clouds,0,2013-06-04 10:53:00
7:53 AM,77.4,77.4,100,29.99,10.0,Calm,Calm,-,N/A,,Scattered Clouds,0,2013-06-04 11:53:00
8:53 AM,79.9,76.3,89,30.01,10.0,East,4.6,-,N/A,,Scattered Clouds,90,2013-06-04 12:53:00
9:53 AM,80.2,76.8,89,30.04,10.0,East,5.8,-,0.00,Rain,Light Rain,90,2013-06-04 13:53:00
10:53 AM,82.4,80.4,94,30.05,10.0,East,5.8,-,0.03,Rain,Light Rain,90,2013-06-04 14:53:00
11:53 AM,84.7,79.7,85,30.04,10.0,ESE,9.2,-,0.02,Rain,Light Rain,110,2013-06-04 15:53:00
12:53 PM,88.5,73.4,61,30.03,10.0,ESE,11.5,-,0.00,,Mostly Cloudy,120,2013-06-04 16:53:00
1:53 PM,84.7,75.0,72,30.02,10.0,ESE,11.5,-,0.00,Rain,Light Rain,120,2013-06-04 17:53:00
2:53 PM,86.0,75.6,71,30.00,10.0,ESE,12.7,-,0.00,,Mostly Cloudy,120,2013-06-04 18:53:00
3:53 PM,81.7,76.6,85,30.00,10.0,ESE,9.2,-,0.00,Rain,Light Rain,120,2013-06-04 19:53:00
4:53 PM,81.9,77.2,86,29.99,10.0,ESE,9.2,-,0.00,Rain,Light Rain,120,2013-06-04 20:53:00
5:53 PM,81.5,77.5,88,29.98,10.0,ESE,5.8,-,0.00,,Mostly Cloudy,110,2013-06-04 21:53:00
6:53 PM,80.1,77.2,91,29.99,10.0,SE,8.1,-,N/A,,Mostly Cloudy,130,2013-06-04 22:53:00
7:53 PM,79.7,77.4,93,30.01,10.0,ESE,6.9,-,0.00,Rain,Light Rain,110,2013-06-04 23:53:00
8:53 PM,79.5,77.2,93,30.01,10.0,East,5.8,-,0.00,,Mostly Cloudy,90,2013-06-05 00:53:00
9:53 PM,79.9,77.4,92,30.02,10.0,East,5.8,-,0.00,Rain,Light Rain,100,2013-06-05 01:53:00
10:53 PM,79.5,75.4,87,30.02,10.0,East,4.6,-,0.00,,Scattered Clouds,90,2013-06-05 02:53:00
11:53 PM,79.5,75.4,87,30.02,10.0,East,9.2,-,0.00,Rain,Light Rain,100,2013-06-05 03:53:00